sensor_id;sensor_type;location;lat;lon;timestamp;P1;durP1;ratioP1;P2;durP2;ratioP2
956;SDS011;465;48.802;9.224;2022-07-29T00:02:26;10.50;;;9.60;;
956;SDS011;465;48.802;9.224;2022-07-29T00:04:55;10.83;;;9.93;;
956;SDS011;465;48.802;9.224;2022-07-29T00:07:21;10.60;;;9.70;;
956;SDS011;465;48.802;9.224;2022-07-29T00:09:48;10.13;;;9.10;;
956;SDS011;465;48.802;9.224;2022-07-29T00:12:15;9.90;;;8.60;;
956;SDS011;465;48.802;9.224;2022-07-29T00:14:42;12.23;;;9.53;;
956;SDS011;465;48.802;9.224;2022-07-29T00:17:09;8.27;;;7.57;;
956;SDS011;465;48.802;9.224;2022-07-29T00:19:35;8.40;;;7.80;;
956;SDS011;465;48.802;9.224;2022-07-29T00:22:03;9.27;;;8.50;;
956;SDS011;465;48.802;9.224;2022-07-29T00:24:30;8.67;;;7.97;;
956;SDS011;465;48.802;9.224;2022-07-29T00:26:57;7.47;;;6.83;;
956;SDS011;465;48.802;9.224;2022-07-29T00:29:24;10.07;;;7.70;;
956;SDS011;465;48.802;9.224;2022-07-29T00:31:50;9.40;;;8.60;;
956;SDS011;465;48.802;9.224;2022-07-29T00:34:17;9.83;;;8.90;;
956;SDS011;465;48.802;9.224;2022-07-29T00:37:01;8.03;;;7.33;;
956;SDS011;465;48.802;9.224;2022-07-29T00:39:29;12.03;;;8.73;;
956;SDS011;465;48.802;9.224;2022-07-29T00:41:56;9.73;;;8.30;;
956;SDS011;465;48.802;9.224;2022-07-29T00:44:23;9.40;;;8.60;;
956;SDS011;465;48.802;9.224;2022-07-29T00:46:49;9.63;;;8.73;;
956;SDS011;465;48.802;9.224;2022-07-29T00:49:16;9.10;;;8.27;;
956;SDS011;465;48.802;9.224;2022-07-29T00:51:43;11.00;;;10.03;;
956;SDS011;465;48.802;9.224;2022-07-29T00:54:11;11.43;;;10.30;;
956;SDS011;465;48.802;9.224;2022-07-29T00:56:38;13.50;;;11.00;;
956;SDS011;465;48.802;9.224;2022-07-29T00:59:05;11.50;;;10.37;;
956;SDS011;465;48.802;9.224;2022-07-29T01:01:32;11.73;;;10.53;;
956;SDS011;465;48.802;9.224;2022-07-29T01:03:58;10.17;;;9.33;;
956;SDS011;465;48.802;9.224;2022-07-29T01:06:25;11.00;;;10.00;;
956;SDS011;465;48.802;9.224;2022-07-29T01:08:53;10.53;;;9.60;;
956;SDS011;465;48.802;9.224;2022-07-29T01:11:21;11.10;;;10.10;;
956;SDS011;465;48.802;9.224;2022-07-29T01:13:51;9.87;;;8.97;;
956;SDS011;465;48.802;9.224;2022-07-29T01:16:20;11.50;;;10.53;;
956;SDS011;465;48.802;9.224;2022-07-29T01:18:50;10.83;;;9.93;;
956;SDS011;465;48.802;9.224;2022-07-29T01:21:27;10.50;;;9.33;;
956;SDS011;465;48.802;9.224;2022-07-29T01:24:20;11.17;;;10.07;;
956;SDS011;465;48.802;9.224;2022-07-29T01:27:16;10.77;;;9.13;;
956;SDS011;465;48.802;9.224;2022-07-29T01:29:59;9.90;;;9.10;;
956;SDS011;465;48.802;9.224;2022-07-29T01:32:29;9.40;;;8.50;;
956;SDS011;465;48.802;9.224;2022-07-29T01:35:00;11.10;;;9.67;;
956;SDS011;465;48.802;9.224;2022-07-29T01:37:35;9.73;;;9.03;;
956;SDS011;465;48.802;9.224;2022-07-29T01:40:09;10.10;;;9.20;;
956;SDS011;465;48.802;9.224;2022-07-29T01:42:44;10.87;;;9.63;;
956;SDS011;465;48.802;9.224;2022-07-29T01:45:17;11.43;;;10.43;;
956;SDS011;465;48.802;9.224;2022-07-29T01:47:46;11.33;;;10.30;;
956;SDS011;465;48.802;9.224;2022-07-29T01:50:23;11.80;;;10.70;;
956;SDS011;465;48.802;9.224;2022-07-29T01:52:58;11.53;;;10.43;;
956;SDS011;465;48.802;9.224;2022-07-29T01:55:27;11.60;;;10.40;;
956;SDS011;465;48.802;9.224;2022-07-29T01:57:56;11.97;;;10.07;;
956;SDS011;465;48.802;9.224;2022-07-29T02:00:26;10.70;;;9.60;;
956;SDS011;465;48.802;9.224;2022-07-29T02:02:54;10.43;;;9.63;;
956;SDS011;465;48.802;9.224;2022-07-29T02:05:23;10.13;;;9.20;;
956;SDS011;465;48.802;9.224;2022-07-29T02:07:52;10.73;;;9.27;;
956;SDS011;465;48.802;9.224;2022-07-29T02:10:22;10.07;;;9.23;;
956;SDS011;465;48.802;9.224;2022-07-29T02:12:52;10.60;;;9.70;;
956;SDS011;465;48.802;9.224;2022-07-29T02:15:20;11.90;;;9.10;;
956;SDS011;465;48.802;9.224;2022-07-29T02:17:50;9.60;;;8.53;;
956;SDS011;465;48.802;9.224;2022-07-29T02:20:21;9.40;;;7.90;;
956;SDS011;465;48.802;9.224;2022-07-29T02:22:51;9.93;;;9.03;;
956;SDS011;465;48.802;9.224;2022-07-29T02:25:19;9.50;;;8.70;;
956;SDS011;465;48.802;9.224;2022-07-29T02:27:47;9.03;;;8.13;;
956;SDS011;465;48.802;9.224;2022-07-29T02:30:16;8.63;;;7.93;;
956;SDS011;465;48.802;9.224;2022-07-29T02:32:44;9.20;;;8.37;;
956;SDS011;465;48.802;9.224;2022-07-29T02:35:14;8.50;;;7.70;;
956;SDS011;465;48.802;9.224;2022-07-29T02:37:41;9.37;;;8.57;;
956;SDS011;465;48.802;9.224;2022-07-29T02:40:10;8.23;;;7.53;;
956;SDS011;465;48.802;9.224;2022-07-29T02:42:41;7.17;;;6.47;;
956;SDS011;465;48.802;9.224;2022-07-29T02:45:11;7.17;;;6.57;;
956;SDS011;465;48.802;9.224;2022-07-29T02:47:39;7.80;;;7.10;;
956;SDS011;465;48.802;9.224;2022-07-29T02:50:11;8.57;;;7.77;;
956;SDS011;465;48.802;9.224;2022-07-29T02:52:42;7.60;;;6.87;;
956;SDS011;465;48.802;9.224;2022-07-29T02:55:16;7.57;;;6.97;;
956;SDS011;465;48.802;9.224;2022-07-29T02:57:47;7.80;;;7.10;;
956;SDS011;465;48.802;9.224;2022-07-29T03:00:20;7.70;;;7.00;;
956;SDS011;465;48.802;9.224;2022-07-29T03:02:50;7.57;;;6.90;;
956;SDS011;465;48.802;9.224;2022-07-29T03:05:20;7.97;;;7.23;;
956;SDS011;465;48.802;9.224;2022-07-29T03:07:51;6.90;;;6.30;;
956;SDS011;465;48.802;9.224;2022-07-29T03:10:21;7.93;;;7.00;;
956;SDS011;465;48.802;9.224;2022-07-29T03:12:49;7.83;;;6.70;;
956;SDS011;465;48.802;9.224;2022-07-29T03:15:16;7.90;;;7.10;;
956;SDS011;465;48.802;9.224;2022-07-29T03:17:44;7.67;;;6.97;;
956;SDS011;465;48.802;9.224;2022-07-29T03:20:11;6.93;;;6.43;;
956;SDS011;465;48.802;9.224;2022-07-29T03:22:41;9.30;;;7.00;;
956;SDS011;465;48.802;9.224;2022-07-29T03:25:09;8.33;;;7.07;;
956;SDS011;465;48.802;9.224;2022-07-29T03:27:38;7.47;;;6.77;;
956;SDS011;465;48.802;9.224;2022-07-29T03:30:06;7.90;;;7.13;;
956;SDS011;465;48.802;9.224;2022-07-29T03:32:34;7.93;;;7.17;;
956;SDS011;465;48.802;9.224;2022-07-29T03:35:01;8.50;;;7.80;;
956;SDS011;465;48.802;9.224;2022-07-29T03:37:28;8.93;;;8.13;;
956;SDS011;465;48.802;9.224;2022-07-29T03:39:57;7.97;;;7.30;;
956;SDS011;465;48.802;9.224;2022-07-29T03:42:24;7.63;;;7.00;;
956;SDS011;465;48.802;9.224;2022-07-29T03:44:54;7.90;;;7.30;;
956;SDS011;465;48.802;9.224;2022-07-29T03:47:23;7.87;;;7.27;;
956;SDS011;465;48.802;9.224;2022-07-29T03:49:54;8.30;;;7.60;;
956;SDS011;465;48.802;9.224;2022-07-29T03:52:25;8.67;;;7.67;;
956;SDS011;465;48.802;9.224;2022-07-29T03:54:52;7.90;;;7.20;;
956;SDS011;465;48.802;9.224;2022-07-29T03:57:20;7.67;;;7.07;;
956;SDS011;465;48.802;9.224;2022-07-29T03:59:51;8.10;;;7.30;;
956;SDS011;465;48.802;9.224;2022-07-29T04:02:18;9.30;;;7.70;;
956;SDS011;465;48.802;9.224;2022-07-29T04:04:46;8.57;;;7.87;;
956;SDS011;465;48.802;9.224;2022-07-29T04:07:13;9.77;;;7.63;;
956;SDS011;465;48.802;9.224;2022-07-29T04:09:40;9.03;;;8.30;;
956;SDS011;465;48.802;9.224;2022-07-29T04:12:07;8.77;;;8.07;;
956;SDS011;465;48.802;9.224;2022-07-29T04:14:36;8.87;;;8.27;;
956;SDS011;465;48.802;9.224;2022-07-29T04:17:03;10.10;;;7.43;;
956;SDS011;465;48.802;9.224;2022-07-29T04:19:31;8.97;;;8.17;;
956;SDS011;465;48.802;9.224;2022-07-29T04:21:58;9.60;;;8.63;;
956;SDS011;465;48.802;9.224;2022-07-29T04:24:25;10.40;;;9.40;;
956;SDS011;465;48.802;9.224;2022-07-29T04:26:53;8.77;;;7.87;;
956;SDS011;465;48.802;9.224;2022-07-29T04:29:19;8.17;;;7.47;;
956;SDS011;465;48.802;9.224;2022-07-29T04:31:47;10.23;;;8.47;;
956;SDS011;465;48.802;9.224;2022-07-29T04:34:14;9.43;;;7.73;;
956;SDS011;465;48.802;9.224;2022-07-29T04:36:41;9.37;;;8.60;;
956;SDS011;465;48.802;9.224;2022-07-29T04:39:07;7.97;;;7.23;;
956;SDS011;465;48.802;9.224;2022-07-29T04:41:35;9.43;;;8.53;;
956;SDS011;465;48.802;9.224;2022-07-29T04:44:02;8.90;;;7.90;;
956;SDS011;465;48.802;9.224;2022-07-29T04:46:30;8.90;;;8.20;;
956;SDS011;465;48.802;9.224;2022-07-29T04:48:58;9.90;;;7.93;;
956;SDS011;465;48.802;9.224;2022-07-29T04:51:25;8.60;;;8.00;;
956;SDS011;465;48.802;9.224;2022-07-29T04:53:52;8.70;;;7.90;;
956;SDS011;465;48.802;9.224;2022-07-29T04:56:18;8.07;;;7.37;;
956;SDS011;465;48.802;9.224;2022-07-29T04:58:45;8.60;;;7.80;;
956;SDS011;465;48.802;9.224;2022-07-29T05:01:12;8.63;;;7.53;;
956;SDS011;465;48.802;9.224;2022-07-29T05:03:39;9.40;;;8.60;;
956;SDS011;465;48.802;9.224;2022-07-29T05:06:07;13.70;;;9.20;;
956;SDS011;465;48.802;9.224;2022-07-29T05:08:34;10.20;;;7.67;;
956;SDS011;465;48.802;9.224;2022-07-29T05:11:01;8.77;;;7.87;;
956;SDS011;465;48.802;9.224;2022-07-29T05:13:28;10.13;;;7.37;;
956;SDS011;465;48.802;9.224;2022-07-29T05:15:55;10.03;;;8.17;;
956;SDS011;465;48.802;9.224;2022-07-29T05:18:23;11.13;;;9.20;;
956;SDS011;465;48.802;9.224;2022-07-29T05:20:49;9.90;;;8.13;;
956;SDS011;465;48.802;9.224;2022-07-29T05:23:18;9.83;;;8.10;;
956;SDS011;465;48.802;9.224;2022-07-29T05:25:44;12.67;;;9.50;;
956;SDS011;465;48.802;9.224;2022-07-29T05:28:11;11.50;;;9.80;;
956;SDS011;465;48.802;9.224;2022-07-29T05:30:38;15.53;;;9.70;;
956;SDS011;465;48.802;9.224;2022-07-29T05:33:05;10.90;;;9.40;;
956;SDS011;465;48.802;9.224;2022-07-29T05:35:31;12.03;;;10.93;;
956;SDS011;465;48.802;9.224;2022-07-29T05:37:59;10.10;;;9.10;;
956;SDS011;465;48.802;9.224;2022-07-29T05:40:27;11.20;;;10.03;;
956;SDS011;465;48.802;9.224;2022-07-29T05:42:54;11.83;;;10.60;;
956;SDS011;465;48.802;9.224;2022-07-29T05:45:22;10.47;;;9.50;;
956;SDS011;465;48.802;9.224;2022-07-29T05:47:49;12.93;;;10.23;;
956;SDS011;465;48.802;9.224;2022-07-29T05:50:16;8.80;;;7.90;;
956;SDS011;465;48.802;9.224;2022-07-29T05:52:42;11.17;;;8.27;;
956;SDS011;465;48.802;9.224;2022-07-29T05:55:09;7.40;;;6.70;;
956;SDS011;465;48.802;9.224;2022-07-29T05:57:37;8.13;;;6.30;;
956;SDS011;465;48.802;9.224;2022-07-29T06:00:05;7.13;;;6.53;;
956;SDS011;465;48.802;9.224;2022-07-29T06:02:32;9.27;;;6.80;;
956;SDS011;465;48.802;9.224;2022-07-29T06:04:59;10.00;;;6.47;;
956;SDS011;465;48.802;9.224;2022-07-29T06:07:26;9.00;;;6.63;;
956;SDS011;465;48.802;9.224;2022-07-29T06:09:52;8.13;;;5.97;;
956;SDS011;465;48.802;9.224;2022-07-29T06:12:19;5.70;;;5.20;;
956;SDS011;465;48.802;9.224;2022-07-29T06:14:47;7.10;;;5.50;;
956;SDS011;465;48.802;9.224;2022-07-29T06:17:15;6.00;;;5.50;;
956;SDS011;465;48.802;9.224;2022-07-29T06:19:42;5.90;;;5.30;;
956;SDS011;465;48.802;9.224;2022-07-29T06:22:09;5.87;;;5.37;;
956;SDS011;465;48.802;9.224;2022-07-29T06:24:36;7.03;;;5.30;;
956;SDS011;465;48.802;9.224;2022-07-29T06:27:06;6.07;;;5.13;;
956;SDS011;465;48.802;9.224;2022-07-29T06:29:33;6.60;;;5.33;;
956;SDS011;465;48.802;9.224;2022-07-29T06:32:01;8.00;;;4.93;;
956;SDS011;465;48.802;9.224;2022-07-29T06:34:27;6.83;;;5.47;;
956;SDS011;465;48.802;9.224;2022-07-29T06:36:54;4.23;;;3.83;;
956;SDS011;465;48.802;9.224;2022-07-29T06:39:23;4.83;;;4.20;;
956;SDS011;465;48.802;9.224;2022-07-29T06:41:50;7.73;;;5.40;;
956;SDS011;465;48.802;9.224;2022-07-29T06:44:17;6.93;;;5.07;;
956;SDS011;465;48.802;9.224;2022-07-29T06:46:44;4.93;;;4.53;;
956;SDS011;465;48.802;9.224;2022-07-29T06:49:13;6.53;;;4.33;;
956;SDS011;465;48.802;9.224;2022-07-29T06:51:40;4.90;;;4.40;;
956;SDS011;465;48.802;9.224;2022-07-29T06:54:06;5.70;;;4.77;;
956;SDS011;465;48.802;9.224;2022-07-29T06:56:34;4.93;;;4.43;;
956;SDS011;465;48.802;9.224;2022-07-29T06:59:02;5.10;;;4.47;;
956;SDS011;465;48.802;9.224;2022-07-29T07:01:29;4.77;;;4.37;;
956;SDS011;465;48.802;9.224;2022-07-29T07:03:55;6.27;;;4.77;;
956;SDS011;465;48.802;9.224;2022-07-29T07:06:24;5.50;;;4.90;;
956;SDS011;465;48.802;9.224;2022-07-29T07:08:50;4.70;;;3.93;;
956;SDS011;465;48.802;9.224;2022-07-29T07:11:17;4.10;;;3.60;;
956;SDS011;465;48.802;9.224;2022-07-29T07:13:44;4.73;;;4.30;;
956;SDS011;465;48.802;9.224;2022-07-29T07:16:10;4.30;;;3.87;;
956;SDS011;465;48.802;9.224;2022-07-29T07:18:38;5.47;;;3.97;;
956;SDS011;465;48.802;9.224;2022-07-29T07:21:05;5.97;;;5.20;;
956;SDS011;465;48.802;9.224;2022-07-29T07:23:33;5.03;;;4.50;;
956;SDS011;465;48.802;9.224;2022-07-29T07:26:00;4.97;;;4.57;;
956;SDS011;465;48.802;9.224;2022-07-29T07:28:28;4.03;;;3.63;;
956;SDS011;465;48.802;9.224;2022-07-29T07:30:55;5.73;;;4.40;;
956;SDS011;465;48.802;9.224;2022-07-29T07:33:21;5.23;;;4.73;;
956;SDS011;465;48.802;9.224;2022-07-29T07:35:48;5.50;;;5.00;;
956;SDS011;465;48.802;9.224;2022-07-29T07:38:15;11.63;;;5.00;;
956;SDS011;465;48.802;9.224;2022-07-29T07:40:43;6.27;;;4.40;;
956;SDS011;465;48.802;9.224;2022-07-29T07:43:12;5.53;;;4.30;;
956;SDS011;465;48.802;9.224;2022-07-29T07:45:39;6.10;;;4.53;;
956;SDS011;465;48.802;9.224;2022-07-29T07:48:06;4.77;;;4.37;;
956;SDS011;465;48.802;9.224;2022-07-29T07:50:35;6.70;;;4.43;;
956;SDS011;465;48.802;9.224;2022-07-29T07:53:02;5.60;;;4.30;;
956;SDS011;465;48.802;9.224;2022-07-29T07:55:29;7.13;;;4.60;;
956;SDS011;465;48.802;9.224;2022-07-29T07:57:57;5.50;;;5.10;;
956;SDS011;465;48.802;9.224;2022-07-29T08:00:24;5.20;;;4.63;;
956;SDS011;465;48.802;9.224;2022-07-29T08:02:51;7.57;;;4.10;;
956;SDS011;465;48.802;9.224;2022-07-29T08:05:18;4.87;;;4.40;;
956;SDS011;465;48.802;9.224;2022-07-29T08:07:45;7.13;;;4.73;;
956;SDS011;465;48.802;9.224;2022-07-29T08:10:13;5.17;;;4.20;;
956;SDS011;465;48.802;9.224;2022-07-29T08:12:40;6.60;;;4.33;;
956;SDS011;465;48.802;9.224;2022-07-29T08:15:12;4.27;;;3.87;;
956;SDS011;465;48.802;9.224;2022-07-29T08:17:40;4.10;;;3.80;;
956;SDS011;465;48.802;9.224;2022-07-29T08:20:07;5.63;;;3.97;;
956;SDS011;465;48.802;9.224;2022-07-29T08:35:31;5.73;;;4.83;;
956;SDS011;465;48.802;9.224;2022-07-29T08:37:58;6.50;;;4.83;;
956;SDS011;465;48.802;9.224;2022-07-29T08:40:24;4.37;;;4.07;;
956;SDS011;465;48.802;9.224;2022-07-29T08:42:51;7.60;;;5.00;;
956;SDS011;465;48.802;9.224;2022-07-29T08:45:18;4.60;;;4.20;;
956;SDS011;465;48.802;9.224;2022-07-29T08:47:45;5.00;;;4.50;;
956;SDS011;465;48.802;9.224;2022-07-29T08:50:13;5.43;;;4.93;;
956;SDS011;465;48.802;9.224;2022-07-29T08:52:40;6.10;;;4.80;;
956;SDS011;465;48.802;9.224;2022-07-29T08:55:08;4.87;;;4.37;;
956;SDS011;465;48.802;9.224;2022-07-29T09:00:14;5.00;;;4.40;;
956;SDS011;465;48.802;9.224;2022-07-29T09:02:50;7.13;;;6.10;;
956;SDS011;465;48.802;9.224;2022-07-29T09:05:33;4.30;;;3.90;;
956;SDS011;465;48.802;9.224;2022-07-29T09:08:34;5.20;;;4.60;;
956;SDS011;465;48.802;9.224;2022-07-29T09:11:10;9.77;;;5.97;;
956;SDS011;465;48.802;9.224;2022-07-29T09:14:06;5.47;;;4.97;;
956;SDS011;465;48.802;9.224;2022-07-29T09:16:51;4.23;;;3.90;;
956;SDS011;465;48.802;9.224;2022-07-29T09:19:38;5.13;;;4.63;;
956;SDS011;465;48.802;9.224;2022-07-29T09:22:27;5.53;;;5.03;;
956;SDS011;465;48.802;9.224;2022-07-29T09:25:31;5.43;;;4.97;;
956;SDS011;465;48.802;9.224;2022-07-29T09:28:05;7.20;;;5.43;;
956;SDS011;465;48.802;9.224;2022-07-29T09:30:43;5.27;;;4.43;;
956;SDS011;465;48.802;9.224;2022-07-29T09:33:24;5.10;;;4.70;;
956;SDS011;465;48.802;9.224;2022-07-29T09:36:05;5.90;;;5.13;;
956;SDS011;465;48.802;9.224;2022-07-29T09:41:25;4.77;;;4.30;;
956;SDS011;465;48.802;9.224;2022-07-29T09:43:58;4.23;;;3.80;;
956;SDS011;465;48.802;9.224;2022-07-29T09:46:31;4.50;;;4.17;;
956;SDS011;465;48.802;9.224;2022-07-29T09:49:06;4.90;;;4.50;;
956;SDS011;465;48.802;9.224;2022-07-29T09:51:58;7.20;;;4.97;;
956;SDS011;465;48.802;9.224;2022-07-29T10:00:08;6.33;;;4.07;;
956;SDS011;465;48.802;9.224;2022-07-29T10:12:08;5.03;;;4.63;;
956;SDS011;465;48.802;9.224;2022-07-29T10:17:51;5.83;;;5.33;;
956;SDS011;465;48.802;9.224;2022-07-29T10:20:36;4.97;;;4.47;;
956;SDS011;465;48.802;9.224;2022-07-29T10:26:23;7.80;;;5.57;;
956;SDS011;465;48.802;9.224;2022-07-29T10:29:12;5.23;;;4.73;;
956;SDS011;465;48.802;9.224;2022-07-29T10:41:12;5.73;;;5.23;;
956;SDS011;465;48.802;9.224;2022-07-29T10:44:00;8.33;;;6.03;;
956;SDS011;465;48.802;9.224;2022-07-29T10:46:36;6.80;;;6.30;;
956;SDS011;465;48.802;9.224;2022-07-29T10:49:14;6.70;;;6.20;;
956;SDS011;465;48.802;9.224;2022-07-29T10:51:59;7.13;;;6.53;;
956;SDS011;465;48.802;9.224;2022-07-29T10:54:39;6.60;;;5.97;;
956;SDS011;465;48.802;9.224;2022-07-29T10:57:25;7.20;;;6.50;;
956;SDS011;465;48.802;9.224;2022-07-29T11:02:58;9.17;;;7.70;;
956;SDS011;465;48.802;9.224;2022-07-29T11:05:27;11.97;;;8.90;;
956;SDS011;465;48.802;9.224;2022-07-29T11:10:45;13.60;;;8.83;;
956;SDS011;465;48.802;9.224;2022-07-29T11:23:17;12.90;;;11.60;;
956;SDS011;465;48.802;9.224;2022-07-29T11:26:16;13.30;;;10.47;;
956;SDS011;465;48.802;9.224;2022-07-29T11:28:53;25.50;;;16.27;;
956;SDS011;465;48.802;9.224;2022-07-29T11:31:32;16.53;;;13.43;;
956;SDS011;465;48.802;9.224;2022-07-29T11:34:16;13.83;;;11.13;;
956;SDS011;465;48.802;9.224;2022-07-29T11:39:45;12.33;;;11.03;;
956;SDS011;465;48.802;9.224;2022-07-29T11:45:04;13.70;;;9.43;;
956;SDS011;465;48.802;9.224;2022-07-29T11:47:33;11.33;;;9.97;;
956;SDS011;465;48.802;9.224;2022-07-29T11:50:02;9.10;;;8.17;;
956;SDS011;465;48.802;9.224;2022-07-29T11:52:33;10.37;;;8.60;;
956;SDS011;465;48.802;9.224;2022-07-29T11:55:02;7.23;;;6.03;;
956;SDS011;465;48.802;9.224;2022-07-29T11:57:31;8.90;;;5.07;;
956;SDS011;465;48.802;9.224;2022-07-29T11:59:59;9.57;;;5.10;;
956;SDS011;465;48.802;9.224;2022-07-29T12:02:37;8.70;;;4.73;;
956;SDS011;465;48.802;9.224;2022-07-29T12:05:07;6.97;;;5.17;;
956;SDS011;465;48.802;9.224;2022-07-29T12:07:38;5.13;;;4.60;;
956;SDS011;465;48.802;9.224;2022-07-29T12:10:06;7.30;;;5.50;;
956;SDS011;465;48.802;9.224;2022-07-29T12:12:35;6.63;;;5.20;;
956;SDS011;465;48.802;9.224;2022-07-29T12:15:12;4.83;;;4.10;;
956;SDS011;465;48.802;9.224;2022-07-29T12:17:40;5.53;;;5.00;;
956;SDS011;465;48.802;9.224;2022-07-29T12:20:07;8.43;;;5.77;;
956;SDS011;465;48.802;9.224;2022-07-29T12:22:35;5.60;;;5.00;;
956;SDS011;465;48.802;9.224;2022-07-29T12:25:06;5.90;;;5.33;;
956;SDS011;465;48.802;9.224;2022-07-29T12:27:34;5.77;;;5.13;;
956;SDS011;465;48.802;9.224;2022-07-29T12:30:04;6.10;;;5.40;;
956;SDS011;465;48.802;9.224;2022-07-29T12:32:33;5.60;;;4.70;;
956;SDS011;465;48.802;9.224;2022-07-29T12:35:02;7.50;;;4.80;;
956;SDS011;465;48.802;9.224;2022-07-29T12:37:30;7.33;;;4.80;;
956;SDS011;465;48.802;9.224;2022-07-29T12:40:02;7.87;;;4.60;;
956;SDS011;465;48.802;9.224;2022-07-29T12:42:32;5.97;;;4.23;;
956;SDS011;465;48.802;9.224;2022-07-29T12:44:59;4.87;;;4.37;;
956;SDS011;465;48.802;9.224;2022-07-29T12:47:27;6.13;;;4.00;;
956;SDS011;465;48.802;9.224;2022-07-29T12:50:06;5.10;;;4.00;;
956;SDS011;465;48.802;9.224;2022-07-29T12:52:35;5.57;;;4.87;;
956;SDS011;465;48.802;9.224;2022-07-29T12:55:02;5.80;;;5.30;;
956;SDS011;465;48.802;9.224;2022-07-29T12:57:31;5.93;;;5.30;;
956;SDS011;465;48.802;9.224;2022-07-29T13:00:10;7.50;;;5.60;;
956;SDS011;465;48.802;9.224;2022-07-29T13:02:40;5.83;;;5.20;;
956;SDS011;465;48.802;9.224;2022-07-29T13:05:08;8.67;;;6.27;;
956;SDS011;465;48.802;9.224;2022-07-29T13:07:37;8.10;;;6.97;;
956;SDS011;465;48.802;9.224;2022-07-29T13:10:11;7.83;;;6.33;;
956;SDS011;465;48.802;9.224;2022-07-29T13:12:41;8.33;;;6.10;;
956;SDS011;465;48.802;9.224;2022-07-29T13:15:27;9.67;;;6.60;;
956;SDS011;465;48.802;9.224;2022-07-29T13:17:54;6.73;;;6.00;;
956;SDS011;465;48.802;9.224;2022-07-29T13:20:23;7.40;;;6.80;;
956;SDS011;465;48.802;9.224;2022-07-29T13:22:52;6.57;;;6.07;;
956;SDS011;465;48.802;9.224;2022-07-29T13:25:23;7.30;;;6.57;;
956;SDS011;465;48.802;9.224;2022-07-29T13:27:52;8.07;;;6.67;;
956;SDS011;465;48.802;9.224;2022-07-29T13:30:20;7.43;;;6.73;;
956;SDS011;465;48.802;9.224;2022-07-29T13:32:48;8.60;;;6.20;;
956;SDS011;465;48.802;9.224;2022-07-29T13:35:16;6.33;;;5.40;;
956;SDS011;465;48.802;9.224;2022-07-29T13:37:43;7.43;;;6.60;;
956;SDS011;465;48.802;9.224;2022-07-29T13:40:10;8.80;;;8.00;;
956;SDS011;465;48.802;9.224;2022-07-29T13:42:37;11.70;;;8.43;;
956;SDS011;465;48.802;9.224;2022-07-29T13:45:09;10.20;;;8.97;;
956;SDS011;465;48.802;9.224;2022-07-29T13:47:39;10.10;;;9.20;;
956;SDS011;465;48.802;9.224;2022-07-29T13:50:07;10.50;;;9.40;;
956;SDS011;465;48.802;9.224;2022-07-29T13:52:35;11.27;;;10.10;;
956;SDS011;465;48.802;9.224;2022-07-29T13:55:02;10.07;;;9.27;;
956;SDS011;465;48.802;9.224;2022-07-29T13:57:30;9.67;;;8.77;;
956;SDS011;465;48.802;9.224;2022-07-29T13:59:58;9.40;;;8.60;;
956;SDS011;465;48.802;9.224;2022-07-29T14:02:26;9.90;;;9.10;;
956;SDS011;465;48.802;9.224;2022-07-29T14:04:52;11.10;;;9.43;;
956;SDS011;465;48.802;9.224;2022-07-29T14:07:19;12.00;;;8.97;;
956;SDS011;465;48.802;9.224;2022-07-29T14:09:46;9.77;;;8.87;;
956;SDS011;465;48.802;9.224;2022-07-29T14:12:13;9.67;;;8.43;;
956;SDS011;465;48.802;9.224;2022-07-29T14:14:39;13.00;;;8.80;;
956;SDS011;465;48.802;9.224;2022-07-29T14:17:06;11.20;;;8.93;;
956;SDS011;465;48.802;9.224;2022-07-29T14:19:34;10.80;;;9.70;;
956;SDS011;465;48.802;9.224;2022-07-29T14:22:02;10.50;;;9.50;;
956;SDS011;465;48.802;9.224;2022-07-29T14:24:31;11.67;;;10.47;;
956;SDS011;465;48.802;9.224;2022-07-29T14:26:58;8.80;;;8.00;;
956;SDS011;465;48.802;9.224;2022-07-29T14:29:25;10.33;;;9.33;;
956;SDS011;465;48.802;9.224;2022-07-29T14:31:52;9.93;;;8.90;;
956;SDS011;465;48.802;9.224;2022-07-29T14:34:19;11.87;;;8.73;;
956;SDS011;465;48.802;9.224;2022-07-29T14:36:47;8.53;;;7.80;;
956;SDS011;465;48.802;9.224;2022-07-29T14:39:13;9.03;;;8.23;;
956;SDS011;465;48.802;9.224;2022-07-29T14:41:41;10.63;;;9.73;;
956;SDS011;465;48.802;9.224;2022-07-29T14:44:09;9.63;;;8.83;;
956;SDS011;465;48.802;9.224;2022-07-29T14:46:36;10.80;;;9.90;;
956;SDS011;465;48.802;9.224;2022-07-29T14:49:02;12.83;;;11.50;;
956;SDS011;465;48.802;9.224;2022-07-29T14:51:30;14.13;;;12.50;;
956;SDS011;465;48.802;9.224;2022-07-29T14:53:58;10.87;;;9.50;;
956;SDS011;465;48.802;9.224;2022-07-29T14:56:25;10.07;;;9.20;;
956;SDS011;465;48.802;9.224;2022-07-29T14:58:51;12.63;;;11.30;;
956;SDS011;465;48.802;9.224;2022-07-29T15:01:18;14.20;;;11.73;;
956;SDS011;465;48.802;9.224;2022-07-29T15:03:45;13.37;;;10.80;;
956;SDS011;465;48.802;9.224;2022-07-29T15:06:11;11.43;;;10.33;;
956;SDS011;465;48.802;9.224;2022-07-29T15:08:38;12.40;;;11.20;;
956;SDS011;465;48.802;9.224;2022-07-29T15:11:06;13.37;;;12.07;;
956;SDS011;465;48.802;9.224;2022-07-29T15:13:33;12.33;;;11.23;;
956;SDS011;465;48.802;9.224;2022-07-29T15:16:00;12.50;;;11.30;;
956;SDS011;465;48.802;9.224;2022-07-29T15:18:27;11.70;;;10.60;;
956;SDS011;465;48.802;9.224;2022-07-29T15:20:53;12.60;;;11.50;;
956;SDS011;465;48.802;9.224;2022-07-29T15:23:20;13.00;;;10.47;;
956;SDS011;465;48.802;9.224;2022-07-29T15:25:47;11.60;;;10.60;;
956;SDS011;465;48.802;9.224;2022-07-29T15:28:15;12.23;;;11.10;;
956;SDS011;465;48.802;9.224;2022-07-29T15:30:41;11.00;;;9.90;;
956;SDS011;465;48.802;9.224;2022-07-29T15:33:08;13.17;;;11.40;;
956;SDS011;465;48.802;9.224;2022-07-29T15:35:35;11.20;;;10.10;;
956;SDS011;465;48.802;9.224;2022-07-29T15:38:02;12.27;;;10.97;;
956;SDS011;465;48.802;9.224;2022-07-29T15:40:29;11.50;;;10.07;;
956;SDS011;465;48.802;9.224;2022-07-29T15:42:59;11.30;;;9.80;;
956;SDS011;465;48.802;9.224;2022-07-29T15:45:35;11.30;;;10.23;;
956;SDS011;465;48.802;9.224;2022-07-29T15:48:04;11.23;;;10.17;;
956;SDS011;465;48.802;9.224;2022-07-29T15:50:32;10.97;;;10.13;;
956;SDS011;465;48.802;9.224;2022-07-29T15:52:58;11.57;;;10.37;;
956;SDS011;465;48.802;9.224;2022-07-29T15:55:25;12.80;;;11.50;;
956;SDS011;465;48.802;9.224;2022-07-29T15:57:52;11.33;;;10.33;;
956;SDS011;465;48.802;9.224;2022-07-29T16:00:19;10.37;;;9.33;;
956;SDS011;465;48.802;9.224;2022-07-29T16:02:47;11.90;;;10.70;;
956;SDS011;465;48.802;9.224;2022-07-29T16:05:14;9.90;;;9.00;;
956;SDS011;465;48.802;9.224;2022-07-29T16:07:41;11.07;;;10.07;;
956;SDS011;465;48.802;9.224;2022-07-29T16:10:08;12.03;;;10.77;;
956;SDS011;465;48.802;9.224;2022-07-29T16:12:34;9.93;;;9.03;;
956;SDS011;465;48.802;9.224;2022-07-29T16:15:01;10.37;;;9.50;;
956;SDS011;465;48.802;9.224;2022-07-29T16:17:29;10.90;;;10.00;;
956;SDS011;465;48.802;9.224;2022-07-29T16:19:57;10.03;;;9.10;;
956;SDS011;465;48.802;9.224;2022-07-29T16:22:23;10.83;;;9.87;;
956;SDS011;465;48.802;9.224;2022-07-29T16:24:50;11.10;;;10.10;;
956;SDS011;465;48.802;9.224;2022-07-29T16:27:17;9.07;;;8.37;;
956;SDS011;465;48.802;9.224;2022-07-29T16:29:48;9.70;;;8.90;;
956;SDS011;465;48.802;9.224;2022-07-29T16:32:15;10.67;;;9.30;;
956;SDS011;465;48.802;9.224;2022-07-29T16:34:42;9.00;;;8.20;;
956;SDS011;465;48.802;9.224;2022-07-29T16:37:10;10.50;;;9.50;;
956;SDS011;465;48.802;9.224;2022-07-29T16:39:36;9.90;;;9.00;;
956;SDS011;465;48.802;9.224;2022-07-29T16:42:03;10.27;;;9.37;;
956;SDS011;465;48.802;9.224;2022-07-29T16:44:30;9.87;;;8.83;;
956;SDS011;465;48.802;9.224;2022-07-29T16:46:57;9.73;;;8.93;;
956;SDS011;465;48.802;9.224;2022-07-29T16:49:24;9.60;;;8.70;;
956;SDS011;465;48.802;9.224;2022-07-29T16:51:50;10.43;;;8.33;;
956;SDS011;465;48.802;9.224;2022-07-29T16:54:19;9.67;;;8.70;;
956;SDS011;465;48.802;9.224;2022-07-29T16:56:51;9.80;;;8.90;;
956;SDS011;465;48.802;9.224;2022-07-29T16:59:18;12.60;;;10.20;;
956;SDS011;465;48.802;9.224;2022-07-29T17:01:44;10.90;;;9.90;;
956;SDS011;465;48.802;9.224;2022-07-29T17:04:11;11.90;;;9.10;;